createdAt,value
2018-12-18T00:01:11.437Z,96.70
2018-12-18T00:03:42.573Z,96.80
2018-12-18T00:06:13.625Z,96.90
2018-12-18T00:08:42.795Z,96.80
2018-12-18T00:11:11.881Z,97.20
2018-12-18T00:13:41.965Z,97.20
2018-12-18T00:16:11.046Z,97.10
2018-12-18T00:18:40.071Z,97.40
2018-12-18T00:21:09.128Z,97.30
2018-12-18T00:23:38.438Z,97.30
2018-12-18T00:26:07.480Z,97.10
2018-12-18T00:28:36.616Z,97.30
2018-12-18T00:31:05.657Z,97.20
2018-12-18T00:33:34.647Z,96.70
2018-12-18T00:36:03.716Z,96.60
2018-12-18T00:38:32.787Z,96.50
2018-12-18T00:41:01.976Z,96.60
2018-12-18T00:43:31.202Z,96.40
2018-12-18T00:46:00.269Z,96.10
2018-12-18T00:48:29.398Z,96.20
2018-12-18T00:50:58.462Z,96.40
2018-12-18T00:53:27.577Z,96.00
2018-12-18T00:55:56.789Z,96.30
2018-12-18T00:58:25.888Z,96.40
2018-12-18T01:00:55.016Z,96.40
2018-12-18T01:03:24.603Z,96.70
2018-12-18T01:05:53.697Z,96.30
2018-12-18T01:08:22.742Z,96.50
2018-12-18T01:10:51.748Z,96.40
2018-12-18T01:13:20.789Z,96.20
2018-12-18T01:15:50.057Z,96.00
2018-12-18T01:18:19.135Z,95.80
2018-12-18T01:20:48.147Z,95.90
2018-12-18T01:23:17.218Z,95.80
2018-12-18T01:25:47.240Z,95.90
2018-12-18T01:28:16.338Z,95.80
2018-12-18T01:30:45.435Z,96.20
2018-12-18T01:33:14.594Z,95.40
2018-12-18T01:35:43.686Z,95.40
2018-12-18T01:38:12.706Z,96.00
2018-12-18T01:40:41.743Z,95.80
2018-12-18T01:43:10.772Z,96.00
2018-12-18T01:45:39.816Z,95.90
2018-12-18T01:48:08.958Z,96.20
2018-12-18T01:50:38.049Z,96.10
2018-12-18T01:53:07.101Z,96.30
2018-12-18T01:55:36.178Z,96.20
2018-12-18T01:58:05.248Z,96.20
2018-12-18T02:00:34.328Z,95.90
2018-12-18T02:03:03.478Z,95.90
2018-12-18T02:05:32.494Z,95.80
2018-12-18T02:08:01.526Z,96.10
2018-12-18T02:10:30.612Z,96.60
2018-12-18T02:12:59.726Z,96.50
2018-12-18T02:15:28.905Z,96.30
2018-12-18T02:17:57.957Z,96.40
2018-12-18T02:20:27.046Z,96.50
2018-12-18T02:22:56.118Z,96.50
2018-12-18T02:25:25.169Z,96.30
2018-12-18T02:27:54.242Z,96.30
2018-12-18T02:30:23.310Z,96.20
2018-12-18T02:32:52.474Z,96.10
2018-12-18T02:35:21.584Z,96.00
2018-12-18T02:37:50.591Z,95.90
2018-12-18T02:40:19.735Z,95.80
2018-12-18T02:42:49.021Z,96.10
2018-12-18T02:45:18.169Z,96.40
2018-12-18T02:47:47.254Z,96.40
2018-12-18T02:50:16.282Z,96.50
2018-12-18T02:52:45.393Z,96.80
2018-12-18T02:55:15.730Z,96.60
2018-12-18T02:57:45.069Z,97.10
2018-12-18T03:00:14.137Z,96.80
2018-12-18T03:02:43.170Z,96.80
2018-12-18T03:05:12.260Z,96.50
2018-12-18T03:07:41.384Z,96.50
2018-12-18T03:10:10.453Z,96.40
2018-12-18T03:12:40.572Z,96.40
2018-12-18T03:15:09.720Z,96.30
2018-12-18T03:17:38.807Z,96.10
2018-12-18T03:20:08.634Z,96.20
2018-12-18T03:22:37.770Z,96.20
2018-12-18T03:25:07.044Z,96.10
2018-12-18T03:27:36.086Z,96.30
2018-12-18T03:30:05.620Z,96.50
2018-12-18T03:32:46.559Z,96.50
2018-12-18T03:35:15.561Z,96.50
2018-12-18T03:37:44.601Z,96.40
2018-12-18T03:40:14.348Z,96.30
2018-12-18T03:42:43.403Z,96.20
2018-12-18T03:45:12.546Z,96.30
2018-12-18T03:47:41.574Z,96.40
2018-12-18T03:50:10.849Z,96.30
2018-12-18T03:52:39.989Z,96.30
2018-12-18T03:55:09.000Z,96.20
2018-12-18T03:57:38.108Z,96.30
2018-12-18T04:00:09.406Z,96.20
2018-12-18T04:02:38.697Z,96.20
2018-12-18T04:05:07.986Z,96.20
2018-12-18T04:07:37.707Z,96.40
2018-12-18T04:10:07.059Z,96.10
2018-12-18T04:12:36.122Z,96.20
2018-12-18T04:15:05.457Z,96.40
2018-12-18T04:17:34.544Z,96.60
2018-12-18T04:20:03.959Z,96.80
2018-12-18T04:22:33.026Z,96.60
2018-12-18T04:25:02.073Z,96.50
2018-12-18T04:27:31.190Z,96.70
2018-12-18T04:30:00.243Z,96.60
2018-12-18T04:32:29.329Z,96.80
2018-12-18T04:35:00.407Z,96.80
2018-12-18T04:37:29.487Z,96.80
2018-12-18T04:39:58.561Z,97.00
2018-12-18T04:42:27.630Z,97.00
2018-12-18T04:44:56.775Z,97.10
2018-12-18T04:47:25.802Z,96.90
2018-12-18T04:49:55.932Z,96.90
2018-12-18T04:52:24.987Z,97.00
2018-12-18T04:54:54.070Z,97.20
2018-12-18T04:57:23.286Z,97.10
2018-12-18T04:59:52.349Z,97.20
2018-12-18T05:02:21.369Z,97.20
2018-12-18T05:04:50.771Z,97.30
2018-12-18T05:07:19.970Z,97.30
2018-12-18T05:09:49.013Z,97.20
2018-12-18T05:12:18.146Z,97.10
2018-12-18T05:14:47.141Z,97.00
2018-12-18T05:17:16.291Z,96.90
2018-12-18T05:19:45.365Z,96.90
2018-12-18T05:22:14.410Z,96.90
2018-12-18T05:24:43.421Z,97.00
2018-12-18T05:27:12.501Z,97.10
2018-12-18T05:29:41.588Z,97.00
2018-12-18T05:32:10.629Z,97.10
2018-12-18T05:34:39.788Z,97.10
2018-12-18T05:37:08.826Z,97.30
2018-12-18T05:39:38.204Z,97.30
2018-12-18T05:42:07.396Z,97.30
2018-12-18T05:44:36.410Z,97.40
2018-12-18T05:47:05.470Z,97.40
2018-12-18T05:49:34.553Z,97.40
2018-12-18T05:52:03.624Z,97.50
2018-12-18T05:54:32.645Z,97.40
2018-12-18T05:57:01.786Z,97.40
2018-12-18T05:59:30.847Z,97.40
2018-12-18T06:01:59.845Z,97.30
2018-12-18T06:04:28.857Z,97.30
2018-12-18T06:06:58.020Z,97.70
2018-12-18T06:09:27.094Z,97.40
2018-12-18T06:11:56.105Z,97.30
2018-12-18T06:14:25.109Z,97.20
2018-12-18T06:16:54.114Z,97.20
2018-12-18T06:19:23.161Z,97.20
2018-12-18T06:21:52.217Z,97.20
2018-12-18T06:24:21.236Z,97.30
2018-12-18T06:26:50.294Z,97.40
2018-12-18T06:29:19.334Z,97.50
2018-12-18T06:31:48.330Z,97.60
2018-12-18T06:34:17.394Z,97.40
2018-12-18T06:36:46.471Z,97.50
2018-12-18T06:39:15.541Z,97.40
2018-12-18T06:41:44.636Z,97.70
2018-12-18T06:44:13.658Z,97.40
2018-12-18T06:46:42.737Z,97.60
2018-12-18T06:49:11.805Z,97.40
2018-12-18T06:51:40.834Z,97.00
2018-12-18T06:54:09.973Z,96.90
2018-12-18T06:56:39.154Z,96.90
2018-12-18T06:59:08.382Z,96.80
2018-12-18T07:01:37.536Z,96.50
2018-12-18T07:04:06.656Z,96.70
2018-12-18T07:06:35.864Z,97.00
2018-12-18T07:09:07.862Z,97.10
2018-12-18T07:11:36.964Z,97.10
2018-12-18T07:14:05.979Z,97.00
2018-12-18T07:16:35.146Z,96.90
2018-12-18T07:19:04.219Z,96.90
2018-12-18T07:21:33.394Z,96.80
2018-12-18T07:24:02.484Z,96.80
2018-12-18T07:26:31.548Z,96.90
2018-12-18T07:29:00.550Z,96.80
2018-12-18T07:31:29.724Z,96.80
2018-12-18T07:33:58.814Z,96.80
2018-12-18T07:36:27.863Z,96.70
2018-12-18T07:38:56.957Z,96.80
2018-12-18T07:41:26.864Z,96.80
2018-12-18T07:43:56.120Z,97.20
2018-12-18T07:46:25.242Z,96.70
2018-12-18T07:48:55.277Z,96.80
2018-12-18T07:51:24.562Z,96.90
2018-12-18T07:53:53.697Z,96.90
2018-12-18T07:56:22.721Z,97.10
2018-12-18T07:58:51.754Z,97.00
2018-12-18T08:01:20.900Z,96.90
2018-12-18T08:03:49.921Z,96.80
2018-12-18T08:06:19.050Z,96.90
2018-12-18T08:08:48.085Z,96.70
2018-12-18T08:11:17.188Z,96.50
2018-12-18T08:13:46.234Z,96.50
2018-12-18T08:16:15.254Z,96.80
2018-12-18T08:18:44.430Z,96.80
2018-12-18T08:21:13.552Z,96.40
2018-12-18T08:23:42.675Z,96.40
2018-12-18T08:26:11.782Z,96.50
2018-12-18T08:28:40.810Z,96.70
2018-12-18T08:31:09.854Z,96.50
2018-12-18T08:33:38.870Z,96.40
2018-12-18T08:36:07.972Z,96.30
2018-12-18T08:38:37.090Z,96.40
2018-12-18T08:41:06.140Z,96.40
2018-12-18T08:43:35.249Z,96.30
2018-12-18T08:46:10.058Z,96.60
2018-12-18T08:48:35.867Z,96.20
2018-12-18T08:51:04.887Z,96.30
2018-12-18T08:53:35.128Z,96.00
2018-12-18T08:56:04.446Z,95.60
2018-12-18T08:58:33.542Z,96.00
2018-12-18T09:01:02.555Z,96.10
2018-12-18T09:03:31.679Z,96.40
2018-12-18T09:06:00.759Z,96.20
2018-12-18T09:08:29.790Z,96.30
2018-12-18T09:10:58.913Z,96.30
2018-12-18T09:13:28.020Z,96.40
2018-12-18T09:15:58.197Z,96.30
2018-12-18T09:18:27.396Z,96.20
2018-12-18T09:20:56.492Z,96.30
2018-12-18T09:23:25.548Z,96.40
2018-12-18T09:25:54.581Z,96.20
2018-12-18T09:28:23.721Z,95.90
2018-12-18T09:30:52.718Z,95.90
2018-12-18T09:33:23.881Z,95.90
2018-12-18T09:35:52.897Z,96.00
2018-12-18T09:38:27.393Z,96.00
2018-12-18T09:41:01.809Z,96.00
2018-12-18T09:43:36.302Z,95.70
2018-12-18T09:46:05.349Z,95.90
2018-12-18T09:48:34.368Z,95.40
2018-12-18T09:51:03.520Z,95.30
2018-12-18T09:53:32.516Z,95.20
2018-12-18T09:56:01.705Z,94.90
2018-12-18T09:58:30.978Z,94.50
2018-12-18T10:01:00.214Z,94.70
2018-12-18T10:03:33.473Z,95.20
2018-12-18T10:06:00.447Z,95.40
2018-12-18T10:08:29.516Z,96.10
2018-12-18T10:10:58.540Z,94.90
2018-12-18T10:13:27.670Z,94.70
2018-12-18T10:15:56.712Z,94.70
2018-12-18T10:18:25.924Z,94.90
2018-12-18T10:20:55.057Z,94.80
2018-12-18T10:23:24.305Z,94.70
2018-12-18T10:25:53.353Z,94.70
2018-12-18T10:28:22.461Z,94.70
2018-12-18T10:30:51.512Z,94.00
2018-12-18T10:33:20.828Z,93.90
2018-12-18T10:35:50.097Z,94.10
2018-12-18T10:38:19.236Z,93.70
2018-12-18T10:40:48.385Z,94.00
2018-12-18T10:43:17.919Z,94.30
2018-12-18T10:45:46.974Z,94.20
2018-12-18T10:48:16.102Z,93.70
2018-12-18T10:50:45.144Z,93.60
2018-12-18T10:53:14.292Z,94.20
2018-12-18T10:55:43.432Z,94.30
2018-12-18T10:58:12.519Z,94.00
2018-12-18T11:00:46.960Z,93.90
2018-12-18T11:03:16.178Z,94.00
2018-12-18T11:05:45.184Z,94.40
2018-12-18T11:08:14.222Z,94.10
2018-12-18T11:10:43.381Z,93.80
2018-12-18T11:13:17.972Z,93.80
2018-12-18T11:15:47.205Z,93.30
2018-12-18T11:18:16.681Z,93.50
2018-12-18T11:20:45.790Z,93.30
2018-12-18T11:23:14.827Z,93.30
2018-12-18T11:25:43.811Z,93.50
2018-12-18T11:28:12.905Z,93.80
2018-12-18T11:30:41.940Z,94.20
2018-12-18T11:33:10.978Z,93.70
2018-12-18T11:35:40.005Z,93.90
2018-12-18T11:38:09.098Z,93.80
2018-12-18T11:40:38.197Z,94.10
2018-12-18T11:43:07.220Z,93.80
2018-12-18T11:45:36.297Z,94.30
2018-12-18T11:48:05.362Z,94.10
2018-12-18T11:50:34.457Z,94.40
2018-12-18T11:53:03.569Z,94.30
2018-12-18T11:55:32.590Z,94.30
2018-12-18T11:58:01.708Z,94.20
2018-12-18T12:00:30.991Z,94.20
2018-12-18T12:03:00.163Z,94.60
2018-12-18T12:05:31.254Z,94.40
2018-12-18T12:08:00.306Z,94.50
2018-12-18T12:10:29.394Z,94.60
2018-12-18T12:12:59.490Z,94.60
2018-12-18T12:15:28.544Z,94.30
2018-12-18T12:17:57.851Z,94.50
2018-12-18T12:20:26.955Z,94.40
2018-12-18T12:22:56.050Z,94.40
2018-12-18T12:25:25.033Z,94.70
2018-12-18T12:27:59.553Z,94.70
2018-12-18T12:30:28.649Z,94.80
2018-12-18T12:32:57.726Z,94.70
2018-12-18T12:35:26.834Z,94.60
2018-12-18T12:37:55.961Z,94.80
2018-12-18T12:40:25.052Z,94.80
2018-12-18T12:42:54.301Z,94.70
2018-12-18T12:45:23.533Z,94.90
2018-12-18T12:47:53.371Z,94.60
2018-12-18T12:50:22.414Z,94.40
2018-12-18T12:52:51.521Z,94.50
2018-12-18T12:55:20.619Z,94.50
2018-12-18T12:57:50.060Z,94.60
2018-12-18T13:00:19.121Z,94.70
2018-12-18T13:02:48.134Z,94.30
2018-12-18T13:05:17.180Z,93.90
2018-12-18T13:07:46.198Z,94.00
2018-12-18T13:10:15.395Z,94.30
2018-12-18T13:12:44.651Z,94.30
2018-12-18T13:15:13.805Z,94.40
2018-12-18T13:17:42.873Z,94.00
2018-12-18T13:20:12.055Z,94.40
2018-12-18T13:22:41.146Z,94.30
2018-12-18T13:25:10.197Z,94.50
2018-12-18T13:27:39.219Z,94.70
2018-12-18T13:30:08.358Z,94.70
2018-12-18T13:32:37.538Z,94.70
2018-12-18T13:35:06.777Z,93.80
2018-12-18T13:37:35.801Z,94.20
2018-12-18T13:40:04.899Z,94.40
2018-12-18T13:42:33.988Z,94.30
2018-12-18T13:45:04.394Z,94.70
2018-12-18T13:47:33.482Z,94.90
2018-12-18T13:50:02.589Z,94.50
2018-12-18T13:52:31.721Z,94.60
2018-12-18T13:55:00.855Z,94.50
2018-12-18T13:57:30.063Z,94.60
2018-12-18T13:59:59.126Z,94.70
2018-12-18T14:02:28.217Z,94.80
2018-12-18T14:04:57.378Z,94.80
2018-12-18T14:07:26.386Z,94.70
2018-12-18T14:09:55.635Z,94.50
2018-12-18T14:12:24.694Z,94.50
2018-12-18T14:14:53.762Z,94.40
2018-12-18T14:17:22.792Z,94.50
2018-12-18T14:19:51.942Z,94.50
2018-12-18T14:22:21.013Z,94.50
2018-12-18T14:24:50.050Z,94.40
2018-12-18T14:27:19.155Z,94.60
2018-12-18T14:29:48.189Z,94.70
2018-12-18T14:32:17.288Z,94.70
2018-12-18T14:34:46.384Z,94.80
2018-12-18T14:37:15.437Z,94.80
2018-12-18T14:39:44.477Z,94.60
2018-12-18T14:42:13.617Z,94.60
2018-12-18T14:44:42.693Z,94.10
2018-12-18T14:47:12.015Z,94.40
2018-12-18T14:49:41.134Z,94.20
2018-12-18T14:52:10.240Z,94.50
2018-12-18T14:54:39.553Z,94.60
2018-12-18T14:57:08.681Z,94.20
2018-12-18T14:59:37.952Z,94.40
2018-12-18T15:02:07.134Z,94.20
2018-12-18T15:04:36.241Z,94.50
2018-12-18T15:07:05.304Z,94.60
2018-12-18T15:09:34.385Z,94.40
2018-12-18T15:12:03.508Z,94.40
2018-12-18T15:14:32.643Z,94.20
2018-12-18T15:17:01.718Z,94.50
2018-12-18T15:19:30.766Z,94.50
2018-12-18T15:21:59.770Z,94.70
2018-12-18T15:24:28.805Z,94.80
2018-12-18T15:26:57.847Z,94.60
2018-12-18T15:29:27.018Z,95.00
2018-12-18T15:31:56.027Z,94.90
2018-12-18T15:34:25.083Z,94.90
2018-12-18T15:36:54.280Z,95.10
2018-12-18T15:39:23.300Z,95.20
2018-12-18T15:41:52.332Z,95.30
2018-12-18T15:44:21.374Z,95.00
2018-12-18T15:46:50.356Z,94.90
2018-12-18T15:49:19.428Z,94.80
2018-12-18T15:51:48.658Z,94.90
2018-12-18T15:54:17.742Z,95.00
2018-12-18T15:56:46.838Z,95.10
2018-12-18T15:59:16.010Z,95.10
2018-12-18T16:01:45.133Z,95.00
2018-12-18T16:04:14.204Z,94.90
2018-12-18T16:06:43.541Z,94.90
2018-12-18T16:09:12.610Z,95.10
2018-12-18T16:11:41.657Z,95.30
2018-12-18T16:14:10.767Z,95.30
2018-12-18T16:16:40.007Z,95.30
2018-12-18T16:19:09.269Z,95.20
2018-12-18T16:21:38.904Z,95.20
2018-12-18T16:24:08.031Z,95.40
2018-12-18T16:26:37.078Z,95.80
2018-12-18T16:29:06.268Z,95.70
2018-12-18T16:31:35.460Z,95.50
2018-12-18T16:34:04.497Z,95.70
2018-12-18T16:36:33.647Z,95.50
2018-12-18T16:39:03.345Z,95.90
2018-12-18T16:41:34.483Z,96.00
2018-12-18T16:44:03.549Z,96.00
2018-12-18T16:46:32.678Z,95.90
2018-12-18T16:49:01.769Z,95.70
2018-12-18T16:51:30.858Z,95.80
2018-12-18T16:54:00.240Z,95.90
2018-12-18T16:56:29.425Z,96.00
2018-12-18T16:58:58.528Z,95.80
2018-12-18T17:01:27.565Z,95.80
2018-12-18T17:03:56.617Z,96.00
2018-12-18T17:06:26.258Z,96.10
2018-12-18T17:08:55.371Z,95.90
2018-12-18T17:11:24.524Z,95.90
2018-12-18T17:13:53.925Z,96.00
2018-12-18T17:16:23.094Z,96.00
2018-12-18T17:18:52.241Z,96.00
2018-12-18T17:21:21.285Z,95.90
2018-12-18T17:23:50.431Z,95.80
2018-12-18T17:26:19.567Z,95.80
2018-12-18T17:28:48.713Z,96.10
2018-12-18T17:31:17.750Z,96.20
2018-12-18T17:33:47.006Z,96.00
2018-12-18T17:36:16.135Z,96.00
2018-12-18T17:38:45.152Z,95.60
2018-12-18T17:41:14.245Z,95.50
2018-12-18T17:43:43.874Z,95.70
2018-12-18T17:46:13.217Z,95.90
2018-12-18T17:48:42.421Z,95.80
2018-12-18T17:51:11.669Z,96.30
2018-12-18T17:53:40.742Z,96.00
2018-12-18T17:56:10.955Z,96.00
2018-12-18T17:58:40.018Z,96.00
2018-12-18T18:01:09.247Z,96.00
2018-12-18T18:03:38.263Z,96.20
2018-12-18T18:06:07.377Z,96.00
2018-12-18T18:08:36.601Z,96.30
2018-12-18T18:11:05.941Z,96.30
2018-12-18T18:13:35.028Z,96.10
2018-12-18T18:16:04.216Z,96.30
2018-12-18T18:18:33.334Z,96.40
2018-12-18T18:21:02.510Z,96.40
2018-12-18T18:23:31.524Z,96.10
2018-12-18T18:26:00.853Z,96.20
2018-12-18T18:28:31.556Z,96.20
2018-12-18T18:31:00.693Z,95.80
2018-12-18T18:33:29.934Z,96.40
2018-12-18T18:35:59.011Z,96.30
2018-12-18T18:38:28.068Z,96.40
2018-12-18T18:40:57.192Z,96.50
2018-12-18T18:43:26.409Z,96.60
2018-12-18T18:45:55.733Z,96.50
2018-12-18T18:48:24.753Z,96.60
2018-12-18T18:50:53.929Z,97.00
2018-12-18T18:53:23.003Z,96.30
2018-12-18T18:55:53.162Z,95.80
2018-12-18T18:58:22.266Z,95.80
2018-12-18T19:00:51.653Z,96.10
2018-12-18T19:03:21.873Z,96.40
2018-12-18T19:05:51.147Z,96.70
2018-12-18T19:08:20.149Z,96.30
2018-12-18T19:10:49.302Z,96.00
2018-12-18T19:13:18.329Z,95.90
2018-12-18T19:15:47.382Z,96.40
2018-12-18T19:18:16.478Z,96.60
2018-12-18T19:20:45.555Z,96.30
2018-12-18T19:23:14.767Z,96.00
2018-12-18T19:25:43.944Z,95.90
2018-12-18T19:28:13.034Z,95.70
2018-12-18T19:30:42.134Z,96.00
2018-12-18T19:33:11.323Z,96.30
2018-12-18T19:35:40.509Z,96.60
2018-12-18T19:38:10.872Z,96.90
2018-12-18T19:40:40.163Z,96.80
2018-12-18T19:43:09.390Z,96.60
2018-12-18T19:45:38.605Z,96.50
2018-12-18T19:48:07.729Z,96.10
2018-12-18T19:50:36.755Z,96.10
2018-12-18T19:53:05.918Z,96.20
2018-12-18T19:55:35.062Z,96.40
2018-12-18T19:58:05.282Z,96.70
2018-12-18T20:00:34.588Z,96.40
2018-12-18T20:03:05.113Z,96.20
2018-12-18T20:05:34.264Z,96.50
2018-12-18T20:08:09.856Z,96.50
2018-12-18T20:10:34.397Z,96.40
2018-12-18T20:13:05.462Z,96.20
2018-12-18T20:15:34.512Z,96.00
2018-12-18T20:18:04.581Z,96.00
2018-12-18T20:20:33.821Z,96.40
2018-12-18T20:23:02.905Z,97.10
2018-12-18T20:25:32.058Z,96.70
2018-12-18T20:28:01.222Z,96.40
2018-12-18T20:30:30.414Z,96.50
2018-12-18T20:32:59.614Z,96.70
2018-12-18T20:35:28.717Z,96.60
2018-12-18T20:37:58.055Z,96.80
2018-12-18T20:40:27.196Z,97.00
2018-12-18T20:42:56.262Z,97.20
2018-12-18T20:45:25.350Z,97.20
2018-12-18T20:47:54.422Z,97.30
2018-12-18T20:50:23.554Z,97.10
2018-12-18T20:52:52.707Z,97.30
2018-12-18T20:55:21.749Z,97.10
2018-12-18T20:57:51.035Z,97.20
2018-12-18T21:00:20.154Z,97.10
2018-12-18T21:02:49.331Z,97.30
2018-12-18T21:05:18.516Z,97.40
2018-12-18T21:07:47.821Z,97.60
2018-12-18T21:10:19.005Z,97.60
2018-12-18T21:12:48.169Z,97.50
2018-12-18T21:15:17.299Z,97.20
2018-12-18T21:17:46.490Z,97.40
2018-12-18T21:20:15.765Z,97.60
2018-12-18T21:22:44.875Z,97.60
2018-12-18T21:25:18.876Z,97.80
2018-12-18T21:27:45.349Z,97.90
2018-12-18T21:30:14.589Z,98.20
2018-12-18T21:32:43.711Z,98.30
2018-12-18T21:35:12.941Z,98.40
2018-12-18T21:37:42.139Z,98.70
2018-12-18T21:40:11.225Z,98.80
2018-12-18T21:42:40.426Z,99.60
2018-12-18T21:45:09.453Z,99.20
2018-12-18T21:47:38.496Z,99.20
2018-12-18T21:50:07.874Z,99.20
2018-12-18T21:52:37.045Z,99.00
2018-12-18T21:55:06.102Z,99.00
2018-12-18T21:57:35.267Z,99.00
2018-12-18T22:00:05.477Z,98.80
2018-12-18T22:02:36.593Z,98.90
2018-12-18T22:05:05.778Z,99.00
2018-12-18T22:07:34.979Z,99.00
2018-12-18T22:10:05.186Z,99.20
2018-12-18T22:12:34.490Z,99.20
2018-12-18T22:15:03.769Z,99.30
2018-12-18T22:17:32.814Z,99.60
2018-12-18T22:20:01.952Z,99.20
2018-12-18T22:22:31.123Z,99.30
2018-12-18T22:25:00.197Z,99.30
2018-12-18T22:27:29.335Z,99.20
2018-12-18T22:29:59.392Z,99.20
2018-12-18T22:32:28.514Z,99.10
2018-12-18T22:34:57.653Z,99.00
2018-12-18T22:37:26.766Z,99.00
2018-12-18T22:39:55.814Z,99.00
2018-12-18T22:42:24.869Z,99.30
2018-12-18T22:44:53.968Z,99.40
2018-12-18T22:47:23.065Z,99.50
2018-12-18T22:49:52.121Z,99.40
2018-12-18T22:52:21.277Z,99.30
2018-12-18T22:54:50.345Z,99.30
2018-12-18T22:57:19.485Z,99.20
2018-12-18T22:59:48.657Z,99.30
2018-12-18T23:02:17.806Z,99.40
2018-12-18T23:04:47.079Z,99.40
2018-12-18T23:07:16.343Z,99.40
2018-12-18T23:09:45.498Z,99.50
2018-12-18T23:12:14.698Z,99.50
2018-12-18T23:14:44.877Z,99.80
2018-12-18T23:17:13.911Z,99.90
2018-12-18T23:19:43.005Z,99.70
2018-12-18T23:22:12.050Z,99.70
2018-12-18T23:24:41.134Z,99.60
2018-12-18T23:27:12.146Z,99.60
2018-12-18T23:29:41.257Z,99.50
2018-12-18T23:32:10.400Z,99.50
2018-12-18T23:34:39.459Z,99.50
2018-12-18T23:37:08.547Z,99.30
2018-12-18T23:39:37.790Z,99.30
2018-12-18T23:42:06.850Z,99.00
2018-12-18T23:44:35.973Z,99.00
2018-12-18T23:47:05.036Z,98.90
2018-12-18T23:49:34.193Z,98.80
2018-12-18T23:52:03.326Z,98.70
2018-12-18T23:54:32.446Z,98.70
2018-12-18T23:57:01.684Z,98.80
2018-12-18T23:59:30.846Z,98.50
